Collierville, TN (38017)

8:24 AM CDT on April 30, 2017 (GMT -0500)
Rolling Oaks Sub | | Change Station
Active Advisory: Wind Advisory

Elev 354 ft 35.06 °N, 89.70 °W | Updated 28 seconds ago

Overcast
Overcast
74.4 °F
Feels Like 73 °F
N
0.0
Wind Variable Wind from East

Today
High -- | Low -- °F
--% Chance of Precip.
Yesterday
High -- | Low -- °F
Precip. -- in
Pressure 29.79 in
Visibility 0.5 miles
Clouds Few 1700 ft
Mostly Cloudy 3100 ft
Overcast 6000 ft
Heat Index 73 °F
Dew Point 70 °F
Humidity 88%
Rainfall 0.00 in
Snow Depth Not available.
6:08 AM 7:43 PM
Waxing Crescent, 22% visible
SPECI KMEM 301318Z 22017G35KT 1/2SM R36L/3500VP6000FT +TSRA BR FEW017 BKN031CB OVC060 21/19 A2979 RMK AO2 PK WND 22035/1311 WSHFT 1304 SFC VIS 4 LTG DSNT ALQDS TSB08 OCNL LTGICCC SW-NW TS SW-NW MOV NE P0023 T02110194
Pressure 29.79 in
Visibility 0.5 miles
Clouds Few 1700 ft
Mostly Cloudy 3100 ft
Overcast 6000 ft
Heat Index 73 °F
Dew Point 70 °F
Humidity 88%
Rainfall 0.00 in
Snow Depth Not available.
6:08 AM 7:43 PM
Waxing Crescent, 22% visible
SPECI KMEM 301318Z 22017G35KT 1/2SM R36L/3500VP6000FT +TSRA BR FEW017 BKN031CB OVC060 21/19 A2979 RMK AO2 PK WND 22035/1311 WSHFT 1304 SFC VIS 4 LTG DSNT ALQDS TSB08 OCNL LTGICCC SW-NW TS SW-NW MOV NE P0023 T02110194

Get Your Daily Forecast Email!

Thanks for signing up!

Be on the lookout for a verification email in your inbox.

You'll start receiving severe weather alerts in your inbox..

×

10-Day Weather Forecast

Almanac

Astronomy

Apr. 30, 2017 Rise Set
Actual Time
Civil Twilight
Nautical Twilight
Astronomical Twilight
Moon
Length of Visible Light
Length of Day
Tomorrow will be .
, % of the Moon is Illuminated

Today's Extremes

State Highs State Lows

Community

WunderPhotos

WunderBlog® & News

Nearby

Air Quality

  Air Quality AQ Index Pollutant
Not available.

Snow Depth

Station Depth Elevation

Earthquake Activity

City Distance Mag. Time & Date
Minimum magnitude displayed is 2.5.

Coastal Water Temperatures

Place Temperature

Stations

Nearby Weather Stations

Station Location Temp. Windchill Dew Point Humidity Wind Precip. Elev Updated Type
                   

Watches & Warnings

Wind Advisory
Issued: 2:17 AM CDT Apr. 30, 2017 – National Weather Service

... Wind Advisory in effect until 7 PM CDT this evening...

The National Weather Service in Memphis has issued a Wind
Advisory, which is in effect until 7 PM CDT this evening.

* Winds... south winds sustained of 20 to 30 mph... with gusts to
40 mph

* timing... through late afternoon today.

* Impacts... loose outdoor items will be vulnerable in the wind.
Driving may become hazardous... especially for high profile
vehicles on west to east roadways.

Precautionary/preparedness actions...

A Wind Advisory means that sustained winds of 25 to 39 mph are
expected... or gusts will range between 40 and 57 mph. Winds this
strong can make driving difficult... especially for high profile
vehicles. Use extra caution.